Time;durP1;ratioP1;P1;durP2;ratioP2;P2;SDS_P1;SDS_P2;PMS_P1;PMS_P2;Temp;Humidity;BMP_temperature;BMP_pressure;BME280_temperature;BME280_humidity;BME280_pressure;Samples;Min_cycle;Max_cycle;Signal;HPM_P1;HPM_P2
2024/04/08 00:00:22;;;;;;;7.57;2.78;;;;;;;;;;5051242;28;20477;-51
2024/04/08 00:02:49;;;;;;;6.70;2.80;;;;;;;;;;5050735;28;20056;-53
2024/04/08 00:05:16;;;;;;;9.55;3.53;;;;;;;;;;5043407;28;20512;-52
2024/04/08 00:07:43;;;;;;;8.07;2.90;;;;;;;;;;5050794;28;20088;-57
2024/04/08 00:10:09;;;;;;;7.50;3.40;;;;;;;;;;5051041;28;20045;-53
2024/04/08 00:12:39;;;;;;;7.07;3.20;;;;;;;;;;5050729;28;20102;-56
2024/04/08 00:15:08;;;;;;;9.50;3.05;;;;;;;;;;5054234;28;20088;-52
2024/04/08 00:17:35;;;;;;;5.70;2.72;;;;;;;;;;5053737;28;20056;-57
2024/04/08 00:20:03;;;;;;;10.63;3.17;;;;;;;;;;5054927;28;20045;-55
2024/04/08 00:22:30;;;;;;;6.85;2.70;;;;;;;;;;5054321;28;20049;-56
2024/04/08 00:24:56;;;;;;;8.93;3.50;;;;;;;;;;5054894;28;20053;-57
2024/04/08 00:27:23;;;;;;;9.38;3.05;;;;;;;;;;5048677;28;20045;-56
2024/04/08 00:29:49;;;;;;;7.60;2.97;;;;;;;;;;5047325;28;20044;-56
2024/04/08 00:32:17;;;;;;;12.40;4.75;;;;;;;;;;5054497;28;20095;-51
2024/04/08 00:34:43;;;;;;;7.80;3.55;;;;;;;;;;5046408;28;20215;-55
2024/04/08 00:37:10;;;;;;;6.88;2.75;;;;;;;;;;5054378;28;20523;-56
2024/04/08 00:39:36;;;;;;;5.78;2.80;;;;;;;;;;5055057;28;20061;-56
2024/04/08 00:42:04;;;;;;;10.63;3.20;;;;;;;;;;5054282;28;20052;-54
2024/04/08 00:44:30;;;;;;;9.18;3.15;;;;;;;;;;5058122;28;20092;-55
2024/04/08 00:46:58;;;;;;;7.47;2.90;;;;;;;;;;5061446;28;20052;-52
2024/04/08 00:49:28;;;;;;;9.82;2.67;;;;;;;;;;5054028;28;20151;-57
2024/04/08 00:51:56;;;;;;;7.70;2.67;;;;;;;;;;5054115;28;20045;-53
2024/04/08 00:54:24;;;;;;;9.75;3.08;;;;;;;;;;5054048;28;20049;-53
2024/04/08 00:56:53;;;;;;;7.30;3.50;;;;;;;;;;5055132;28;20063;-53
2024/04/08 00:59:20;;;;;;;7.97;2.75;;;;;;;;;;5054067;28;20052;-57
2024/04/08 01:01:47;;;;;;;9.57;3.42;;;;;;;;;;5054059;28;20053;-57
2024/04/08 01:04:13;;;;;;;8.15;3.03;;;;;;;;;;5052802;28;20056;-57
2024/04/08 01:06:41;;;;;;;7.03;2.97;;;;;;;;;;5053778;28;20045;-56
2024/04/08 01:09:08;;;;;;;8.73;2.60;;;;;;;;;;5053862;28;20049;-55
2024/04/08 01:11:35;;;;;;;7.55;2.80;;;;;;;;;;5054017;28;20435;-54
2024/04/08 01:14:01;;;;;;;6.80;3.03;;;;;;;;;;5054827;28;20072;-53
2024/04/08 01:16:28;;;;;;;8.13;2.38;;;;;;;;;;5053085;28;20041;-54
2024/04/08 01:18:54;;;;;;;12.07;3.20;;;;;;;;;;5059185;28;20500;-56
2024/04/08 01:21:21;;;;;;;8.75;3.03;;;;;;;;;;5064990;28;20060;-57
2024/04/08 01:23:48;;;;;;;8.23;2.85;;;;;;;;;;5061605;28;20524;-54
2024/04/08 01:26:17;;;;;;;6.35;2.60;;;;;;;;;;5052383;28;20095;-53
2024/04/08 01:28:43;;;;;;;7.75;2.65;;;;;;;;;;5054445;28;20045;-55
2024/04/08 01:31:10;;;;;;;8.25;3.17;;;;;;;;;;5053340;28;20500;-54
2024/04/08 01:33:37;;;;;;;10.48;2.70;;;;;;;;;;5053324;28;20049;-51
2024/04/08 01:36:04;;;;;;;6.47;2.60;;;;;;;;;;5053457;28;20048;-52
2024/04/08 01:38:30;;;;;;;9.77;2.70;;;;;;;;;;5053490;28;20466;-51
2024/04/08 01:40:59;;;;;;;7.78;2.67;;;;;;;;;;5067251;28;20049;-53
2024/04/08 01:43:25;;;;;;;10.00;2.78;;;;;;;;;;5057561;28;20523;-56
2024/04/08 01:45:52;;;;;;;7.30;2.70;;;;;;;;;;5054967;28;20041;-58
2024/04/08 01:48:18;;;;;;;9.20;2.72;;;;;;;;;;5062019;28;20076;-58
2024/04/08 01:50:44;;;;;;;5.97;2.47;;;;;;;;;;5054542;28;20049;-57
2024/04/08 01:53:11;;;;;;;8.90;2.60;;;;;;;;;;5069006;28;20049;-58
2024/04/08 01:55:37;;;;;;;8.05;2.80;;;;;;;;;;5061735;28;20064;-56
2024/04/08 01:58:05;;;;;;;7.60;2.35;;;;;;;;;;5067831;28;20301;-57
2024/04/08 02:00:32;;;;;;;6.38;2.20;;;;;;;;;;5054865;28;20558;-58
2024/04/08 02:02:58;;;;;;;6.05;2.45;;;;;;;;;;5053107;28;20500;-54
2024/04/08 02:05:24;;;;;;;7.32;3.08;;;;;;;;;;5052829;28;20049;-57
2024/04/08 02:07:50;;;;;;;7.30;2.35;;;;;;;;;;5052869;28;20049;-57
2024/04/08 02:10:18;;;;;;;8.75;2.50;;;;;;;;;;5052974;28;20389;-56
2024/04/08 02:12:44;;;;;;;10.32;2.53;;;;;;;;;;5053987;28;20483;-58
2024/04/08 02:15:12;;;;;;;7.03;2.30;;;;;;;;;;5057112;28;20079;-56
2024/04/08 02:17:38;;;;;;;9.38;2.47;;;;;;;;;;5047725;28;20098;-58
2024/04/08 02:20:08;;;;;;;6.80;2.80;;;;;;;;;;5061253;28;20496;-51
2024/04/08 02:22:34;;;;;;;6.47;2.45;;;;;;;;;;5052250;28;20064;-55
2024/04/08 02:25:01;;;;;;;9.82;2.70;;;;;;;;;;5066552;28;20044;-58
2024/04/08 02:27:27;;;;;;;8.95;2.17;;;;;;;;;;5055983;28;20174;-58
2024/04/08 02:29:54;;;;;;;7.20;2.50;;;;;;;;;;5059405;28;20509;-54
2024/04/08 02:32:21;;;;;;;6.10;2.30;;;;;;;;;;5060541;28;20053;-58
2024/04/08 02:34:48;;;;;;;8.77;2.65;;;;;;;;;;5056711;28;20082;-56
2024/04/08 02:37:14;;;;;;;9.00;2.50;;;;;;;;;;5064092;28;20519;-58
2024/04/08 02:39:41;;;;;;;7.80;2.47;;;;;;;;;;5072516;28;20053;-58
2024/04/08 02:42:07;;;;;;;10.57;2.47;;;;;;;;;;5063656;28;20052;-56
2024/04/08 02:44:34;;;;;;;6.10;2.72;;;;;;;;;;5061735;28;20055;-54
2024/04/08 02:47:00;;;;;;;8.70;2.90;;;;;;;;;;5052152;28;20044;-58
2024/04/08 02:49:28;;;;;;;11.23;2.83;;;;;;;;;;5053375;28;20409;-53
2024/04/08 02:51:56;;;;;;;9.38;2.33;;;;;;;;;;5063679;28;20068;-56
2024/04/08 02:54:23;;;;;;;7.82;2.72;;;;;;;;;;5056944;28;20128;-55
2024/04/08 02:56:49;;;;;;;9.88;3.08;;;;;;;;;;5051879;28;20405;-57
2024/04/08 02:59:16;;;;;;;8.80;2.53;;;;;;;;;;5060113;28;20057;-56
2024/04/08 03:01:42;;;;;;;7.95;2.92;;;;;;;;;;5051781;28;20049;-57
2024/04/08 03:04:09;;;;;;;7.25;2.30;;;;;;;;;;5050616;28;20511;-58
2024/04/08 03:06:36;;;;;;;9.35;2.50;;;;;;;;;;5056469;28;20477;-55
2024/04/08 03:09:05;;;;;;;12.00;2.90;;;;;;;;;;5054382;28;20049;-54
2024/04/08 03:11:31;;;;;;;9.40;2.80;;;;;;;;;;5059856;28;20078;-57
2024/04/08 03:13:58;;;;;;;8.60;2.65;;;;;;;;;;5065131;28;20045;-57
2024/04/08 03:16:24;;;;;;;9.52;2.83;;;;;;;;;;5052387;28;20056;-53
2024/04/08 03:18:51;;;;;;;9.68;2.40;;;;;;;;;;5051554;28;20045;-53
2024/04/08 03:21:17;;;;;;;8.95;2.72;;;;;;;;;;5059725;28;20053;-53
2024/04/08 03:23:45;;;;;;;9.98;2.70;;;;;;;;;;5067349;28;20057;-57
2024/04/08 03:26:12;;;;;;;6.72;2.60;;;;;;;;;;5053904;28;20049;-55
2024/04/08 03:28:40;;;;;;;10.20;2.75;;;;;;;;;;5056595;28;20048;-58
2024/04/08 03:31:06;;;;;;;6.93;2.50;;;;;;;;;;5063130;28;20051;-58
2024/04/08 03:33:34;;;;;;;9.48;2.83;;;;;;;;;;5052801;28;20091;-57
2024/04/08 03:36:01;;;;;;;14.73;3.60;;;;;;;;;;5051012;28;20420;-54
2024/04/08 03:38:28;;;;;;;13.55;3.58;;;;;;;;;;5051633;28;20437;-57
2024/04/08 03:41:00;;;;;;;10.73;3.50;;;;;;;;;;5047408;28;20054;-56
2024/04/08 03:43:27;;;;;;;13.88;3.45;;;;;;;;;;5059517;28;20055;-57
2024/04/08 03:45:54;;;;;;;9.73;3.53;;;;;;;;;;5053958;28;20052;-56
2024/04/08 03:48:21;;;;;;;12.15;3.53;;;;;;;;;;5049733;28;20060;-57
2024/04/08 03:50:47;;;;;;;11.45;3.45;;;;;;;;;;5053271;28;20056;-55
2024/04/08 03:53:14;;;;;;;12.18;3.10;;;;;;;;;;5067183;28;20052;-57
2024/04/08 03:55:40;;;;;;;8.90;3.35;;;;;;;;;;5054014;28;20049;-57
2024/04/08 03:58:08;;;;;;;11.45;3.58;;;;;;;;;;5066090;28;20118;-52
2024/04/08 04:00:34;;;;;;;10.60;4.55;;;;;;;;;;5052372;28;20485;-56
2024/04/08 04:03:01;;;;;;;10.90;4.40;;;;;;;;;;5056888;28;20416;-54
2024/04/08 04:05:27;;;;;;;7.38;3.63;;;;;;;;;;5061438;28;20049;-58
2024/04/08 04:07:56;;;;;;;15.57;5.40;;;;;;;;;;5059450;28;20049;-53
2024/04/08 04:10:22;;;;;;;12.80;4.57;;;;;;;;;;5051407;28;20126;-55
2024/04/08 04:12:49;;;;;;;10.85;5.03;;;;;;;;;;5063681;28;20044;-53
2024/04/08 04:15:16;;;;;;;9.80;3.70;;;;;;;;;;5070904;28;20059;-59
2024/04/08 04:17:43;;;;;;;13.98;4.32;;;;;;;;;;5071122;28;20114;-59
2024/04/08 04:20:10;;;;;;;11.68;3.28;;;;;;;;;;5055733;28;20485;-56
2024/04/08 04:22:37;;;;;;;11.65;3.33;;;;;;;;;;5069633;28;20048;-54
2024/04/08 04:25:04;;;;;;;9.63;3.38;;;;;;;;;;5064602;28;20516;-58
2024/04/08 04:27:31;;;;;;;8.05;3.03;;;;;;;;;;5067364;28;20041;-56
2024/04/08 04:29:57;;;;;;;9.35;3.38;;;;;;;;;;5064625;28;20433;-56
2024/04/08 04:32:25;;;;;;;13.15;4.55;;;;;;;;;;5061729;28;20051;-53
2024/04/08 04:34:52;;;;;;;13.27;3.65;;;;;;;;;;5050544;28;20057;-56
2024/04/08 04:37:19;;;;;;;11.20;3.80;;;;;;;;;;5050855;28;20055;-51
2024/04/08 04:39:45;;;;;;;10.43;3.40;;;;;;;;;;5058786;28;20060;-54
2024/04/08 04:42:12;;;;;;;12.77;3.65;;;;;;;;;;5066284;28;20052;-56
2024/04/08 04:44:37;;;;;;;9.05;4.20;;;;;;;;;;5070942;28;20137;-56
2024/04/08 04:47:05;;;;;;;8.48;3.63;;;;;;;;;;5062717;28;20487;-56
2024/04/08 04:49:32;;;;;;;6.82;3.25;;;;;;;;;;5068907;28;20060;-58
2024/04/08 04:51:59;;;;;;;9.55;4.18;;;;;;;;;;5061063;28;20055;-56
2024/04/08 04:54:25;;;;;;;11.25;4.10;;;;;;;;;;5050305;28;20103;-52
2024/04/08 04:56:52;;;;;;;8.73;3.50;;;;;;;;;;5063483;28;20516;-57
2024/04/08 04:59:18;;;;;;;8.50;3.38;;;;;;;;;;5070573;28;20053;-55
2024/04/08 05:01:44;;;;;;;9.80;4.50;;;;;;;;;;5057162;28;20499;-56
2024/04/08 05:04:10;;;;;;;10.57;4.20;;;;;;;;;;5073023;28;20123;-56
2024/04/08 05:06:39;;;;;;;10.48;3.92;;;;;;;;;;5074202;28;20445;-55
2024/04/08 05:09:05;;;;;;;6.85;3.88;;;;;;;;;;5074009;28;20094;-56
2024/04/08 05:11:32;;;;;;;12.13;4.18;;;;;;;;;;5074101;28;20420;-53
2024/04/08 05:13:58;;;;;;;8.35;3.90;;;;;;;;;;5073768;28;20048;-50
2024/04/08 05:16:28;;;;;;;9.57;4.30;;;;;;;;;;5073827;28;20048;-51
2024/04/08 05:18:53;;;;;;;7.83;3.70;;;;;;;;;;5068351;28;20388;-53
2024/04/08 05:21:21;;;;;;;17.42;5.38;;;;;;;;;;5054105;28;20120;-56
2024/04/08 05:23:49;;;;;;;9.15;4.85;;;;;;;;;;5056660;28;20134;-54
2024/04/08 05:26:16;;;;;;;9.32;4.85;;;;;;;;;;5054182;28;20037;-56
2024/04/08 05:28:42;;;;;;;9.52;4.35;;;;;;;;;;5065287;28;20056;-57
2024/04/08 05:31:09;;;;;;;9.52;5.15;;;;;;;;;;5069731;28;20049;-54
2024/04/08 05:33:35;;;;;;;8.60;4.18;;;;;;;;;;5053080;28;20045;-50
2024/04/08 05:36:03;;;;;;;9.27;4.25;;;;;;;;;;5067672;28;20086;-52
2024/04/08 05:38:29;;;;;;;11.70;4.28;;;;;;;;;;5073688;28;20048;-54
2024/04/08 05:41:02;;;;;;;14.55;5.10;;;;;;;;;;5070646;28;20561;-57
2024/04/08 05:43:28;;;;;;;12.20;4.57;;;;;;;;;;5057956;28;20099;-55
2024/04/08 05:45:55;;;;;;;12.88;6.40;;;;;;;;;;5063484;28;20056;-56
2024/04/08 05:48:22;;;;;;;12.30;6.20;;;;;;;;;;5053813;28;20053;-57
2024/04/08 05:50:49;;;;;;;13.32;6.15;;;;;;;;;;5073308;28;20052;-55
2024/04/08 05:53:15;;;;;;;15.20;7.05;;;;;;;;;;5072931;28;20080;-53
2024/04/08 05:55:42;;;;;;;12.75;5.82;;;;;;;;;;5064827;28;20041;-50
2024/04/08 05:58:10;;;;;;;11.90;5.80;;;;;;;;;;5064815;28;20146;-51
2024/04/08 06:00:37;;;;;;;17.27;6.82;;;;;;;;;;5072357;28;20529;-57
2024/04/08 06:03:03;;;;;;;18.58;6.80;;;;;;;;;;5056946;28;20655;-56
2024/04/08 06:05:31;;;;;;;16.42;6.57;;;;;;;;;;5053084;28;20568;-54
2024/04/08 06:07:57;;;;;;;12.00;6.68;;;;;;;;;;5065591;28;20045;-57
2024/04/08 06:10:30;;;;;;;12.98;6.78;;;;;;;;;;5064487;28;20055;-57
2024/04/08 06:12:56;;;;;;;13.70;6.65;;;;;;;;;;5054533;28;20479;-54
2024/04/08 06:15:25;;;;;;;13.52;7.10;;;;;;;;;;5050751;28;20053;-56
2024/04/08 06:17:51;;;;;;;19.75;6.78;;;;;;;;;;5054226;28;20160;-55
2024/04/08 06:20:18;;;;;;;16.92;7.57;;;;;;;;;;5053089;28;20482;-54
2024/04/08 06:22:44;;;;;;;21.15;7.20;;;;;;;;;;5055021;28;20105;-56
2024/04/08 06:25:11;;;;;;;13.82;6.10;;;;;;;;;;5051627;28;20045;-55
2024/04/08 06:27:37;;;;;;;15.95;6.75;;;;;;;;;;5044151;28;20408;-56
2024/04/08 06:30:05;;;;;;;17.35;6.75;;;;;;;;;;5048766;28;20051;-56
2024/04/08 06:32:32;;;;;;;16.17;7.63;;;;;;;;;;5048099;28;20076;-52
2024/04/08 06:34:59;;;;;;;14.63;6.97;;;;;;;;;;5050578;28;20049;-57
2024/04/08 06:37:25;;;;;;;16.88;6.72;;;;;;;;;;5049280;28;20111;-53
2024/04/08 06:39:52;;;;;;;16.58;6.53;;;;;;;;;;5052134;28;20041;-55
2024/04/08 06:42:19;;;;;;;16.15;6.68;;;;;;;;;;5042359;28;20056;-53
2024/04/08 06:44:49;;;;;;;18.80;5.60;;;;;;;;;;5052378;28;20564;-54
2024/04/08 06:47:15;;;;;;;13.65;4.90;;;;;;;;;;5060149;28;20044;-56
2024/04/08 06:49:44;;;;;;;10.75;4.22;;;;;;;;;;5051737;28;20067;-54
2024/04/08 06:52:11;;;;;;;14.55;4.40;;;;;;;;;;5060569;28;20056;-56
2024/04/08 06:54:38;;;;;;;15.73;4.55;;;;;;;;;;5060436;28;20053;-54
2024/04/08 06:57:04;;;;;;;17.55;4.95;;;;;;;;;;5058367;28;20158;-52
2024/04/08 06:59:31;;;;;;;18.02;6.40;;;;;;;;;;5045765;28;20059;-56
2024/04/08 07:01:57;;;;;;;13.02;5.47;;;;;;;;;;5046135;28;20075;-57
2024/04/08 07:04:24;;;;;;;17.15;6.10;;;;;;;;;;5053375;28;20048;-56
2024/04/08 07:06:51;;;;;;;20.08;6.53;;;;;;;;;;5047405;28;20067;-55
2024/04/08 07:09:20;;;;;;;17.08;5.22;;;;;;;;;;5041914;28;20053;-57
2024/04/08 07:11:46;;;;;;;17.70;5.82;;;;;;;;;;5043101;28;20119;-52
2024/04/08 07:14:14;;;;;;;20.67;6.07;;;;;;;;;;5048528;28;20483;-50
2024/04/08 07:16:40;;;;;;;22.40;5.60;;;;;;;;;;5049083;28;20103;-57
2024/04/08 07:19:07;;;;;;;17.58;6.32;;;;;;;;;;5049120;28;20049;-56
2024/04/08 07:21:33;;;;;;;16.88;5.68;;;;;;;;;;5055181;28;20049;-52
2024/04/08 07:24:01;;;;;;;19.98;4.75;;;;;;;;;;5044186;28;20099;-54
2024/04/08 07:26:27;;;;;;;18.88;5.18;;;;;;;;;;5050715;28;20061;-56
2024/04/08 07:28:54;;;;;;;14.20;5.03;;;;;;;;;;5055395;28;20570;-53
2024/04/08 07:31:19;;;;;;;16.52;6.00;;;;;;;;;;5046399;28;20047;-55
2024/04/08 07:33:46;;;;;;;24.52;5.43;;;;;;;;;;5041076;28;20128;-54
2024/04/08 07:36:12;;;;;;;18.85;5.90;;;;;;;;;;5048061;28;20052;-55
2024/04/08 07:38:39;;;;;;;14.52;5.28;;;;;;;;;;5048565;28;20056;-61
2024/04/08 07:41:06;;;;;;;17.60;5.00;;;;;;;;;;5056013;28;20131;-64
2024/04/08 07:43:34;;;;;;;18.23;5.57;;;;;;;;;;5050493;28;20045;-59
2024/04/08 07:46:00;;;;;;;18.38;4.93;;;;;;;;;;5045308;28;20056;-60
2024/04/08 07:48:27;;;;;;;17.92;5.32;;;;;;;;;;5049167;28;20045;-61
2024/04/08 07:50:56;;;;;;;17.73;4.97;;;;;;;;;;5044196;28;20049;-60
2024/04/08 07:53:23;;;;;;;20.13;5.18;;;;;;;;;;5052836;28;20049;-60
2024/04/08 07:55:49;;;;;;;18.77;4.80;;;;;;;;;;5043951;28;20053;-56
2024/04/08 07:58:17;;;;;;;18.83;6.30;;;;;;;;;;5052570;28;20048;-55
2024/04/08 08:00:43;;;;;;;22.92;4.90;;;;;;;;;;5052138;28;20079;-52
2024/04/08 08:03:10;;;;;;;23.25;4.95;;;;;;;;;;5046985;28;20493;-53
2024/04/08 08:05:36;;;;;;;18.38;5.10;;;;;;;;;;5052902;28;20424;-55
2024/04/08 08:08:02;;;;;;;18.50;4.72;;;;;;;;;;5045126;28;20038;-55
2024/04/08 08:10:29;;;;;;;19.80;4.55;;;;;;;;;;5051446;28;20048;-54
2024/04/08 08:12:56;;;;;;;19.42;5.30;;;;;;;;;;5053387;28;20045;-54
2024/04/08 08:15:25;;;;;;;20.50;5.50;;;;;;;;;;5053681;28;20048;-55
2024/04/08 08:17:54;;;;;;;25.10;5.00;;;;;;;;;;5048081;28;20045;-54
2024/04/08 08:20:21;;;;;;;22.17;4.43;;;;;;;;;;5056662;28;20049;-54
2024/04/08 08:22:48;;;;;;;18.63;4.38;;;;;;;;;;5044225;28;20561;-57
2024/04/08 08:25:15;;;;;;;18.63;5.32;;;;;;;;;;5042523;28;20049;-56
2024/04/08 08:27:42;;;;;;;19.63;4.93;;;;;;;;;;5048669;28;20471;-59
2024/04/08 08:30:10;;;;;;;21.25;5.63;;;;;;;;;;5042261;28;20575;-55
2024/04/08 08:32:38;;;;;;;19.02;4.90;;;;;;;;;;5047606;28;20555;-53
2024/04/08 08:35:04;;;;;;;22.17;4.97;;;;;;;;;;5048931;28;20052;-52
2024/04/08 08:37:31;;;;;;;18.23;4.72;;;;;;;;;;5054639;28;20056;-53
2024/04/08 08:39:57;;;;;;;21.02;4.68;;;;;;;;;;5051745;28;20041;-54
2024/04/08 08:42:29;;;;;;;20.58;4.05;;;;;;;;;;5048308;28;20049;-56
2024/04/08 08:44:57;;;;;;;18.10;4.85;;;;;;;;;;5063256;28;20048;-56
2024/04/08 08:47:25;;;;;;;19.23;3.92;;;;;;;;;;5051301;28;20060;-55
2024/04/08 08:49:54;;;;;;;18.40;4.50;;;;;;;;;;5055394;28;20052;-54
2024/04/08 08:52:21;;;;;;;20.40;3.35;;;;;;;;;;5059138;28;20080;-55
2024/04/08 08:54:48;;;;;;;21.58;6.22;;;;;;;;;;5059604;28;20049;-57
2024/04/08 08:57:15;;;;;;;17.20;3.95;;;;;;;;;;5048760;28;20136;-57
2024/04/08 08:59:42;;;;;;;18.90;4.57;;;;;;;;;;5049022;28;20488;-53
2024/04/08 09:02:12;;;;;;;13.65;3.90;;;;;;;;;;5053094;28;20049;-55
2024/04/08 09:04:39;;;;;;;16.33;4.25;;;;;;;;;;5052871;28;20060;-52
2024/04/08 09:07:09;;;;;;;13.10;3.60;;;;;;;;;;5048392;28;20041;-55
2024/04/08 09:09:35;;;;;;;17.73;4.53;;;;;;;;;;5053639;28;20045;-54
2024/04/08 09:12:02;;;;;;;18.50;4.20;;;;;;;;;;5046569;28;20603;-54
2024/04/08 09:14:28;;;;;;;16.83;3.55;;;;;;;;;;5047832;28;20049;-54
2024/04/08 09:17:05;;;;;;;18.50;3.72;;;;;;;;;;5047866;28;20106;-54
2024/04/08 09:19:31;;;;;;;15.85;3.53;;;;;;;;;;5046318;28;20089;-50
2024/04/08 09:21:58;;;;;;;12.00;3.40;;;;;;;;;;5052343;28;20514;-56
2024/04/08 09:24:25;;;;;;;14.18;3.22;;;;;;;;;;5050876;28;20052;-56
2024/04/08 09:26:53;;;;;;;14.35;3.72;;;;;;;;;;5051815;28;20463;-56
2024/04/08 09:29:19;;;;;;;18.05;3.60;;;;;;;;;;5046183;28;20492;-52
2024/04/08 09:31:46;;;;;;;21.92;3.58;;;;;;;;;;5044056;28;20056;-54
2024/04/08 09:34:12;;;;;;;16.83;3.67;;;;;;;;;;5044416;28;20050;-56
2024/04/08 09:36:41;;;;;;;12.55;3.38;;;;;;;;;;5053066;28;20049;-56
2024/04/08 09:39:10;;;;;;;20.80;3.58;;;;;;;;;;5052409;28;20045;-51
2024/04/08 09:41:38;;;;;;;19.13;3.53;;;;;;;;;;5058072;28;20049;-52
2024/04/08 09:44:09;;;;;;;16.55;4.00;;;;;;;;;;5056053;28;21236;-53
2024/04/08 09:46:35;;;;;;;19.17;4.55;;;;;;;;;;5050472;28;20420;-51
2024/04/08 09:49:04;;;;;;;18.10;4.55;;;;;;;;;;5059042;28;20040;-52
2024/04/08 09:51:30;;;;;;;14.43;4.07;;;;;;;;;;5058944;28;20060;-56
2024/04/08 09:53:58;;;;;;;18.40;3.45;;;;;;;;;;5054686;28;20134;-56
2024/04/08 09:56:29;;;;;;;20.90;4.85;;;;;;;;;;5053406;28;20055;-54
2024/04/08 09:59:08;;;;;;;23.02;5.15;;;;;;;;;;5057372;28;20041;-56
2024/04/08 10:01:36;;;;;;;22.75;4.38;;;;;;;;;;5059472;28;20056;-52
2024/04/08 10:04:07;;;;;;;22.48;4.40;;;;;;;;;;5057627;28;20048;-56
2024/04/08 10:06:34;;;;;;;18.27;5.07;;;;;;;;;;5050582;28;20515;-56
2024/04/08 10:09:01;;;;;;;22.00;5.25;;;;;;;;;;5057414;28;20048;-55
2024/04/08 10:11:28;;;;;;;16.42;4.28;;;;;;;;;;5065585;28;20532;-55
2024/04/08 10:13:55;;;;;;;22.23;4.57;;;;;;;;;;5058158;28;20087;-52
2024/04/08 10:16:22;;;;;;;18.45;5.38;;;;;;;;;;5064797;28;20357;-56
2024/04/08 10:18:52;;;;;;;23.50;4.38;;;;;;;;;;5057365;28;20044;-56
2024/04/08 10:21:18;;;;;;;;;;;;;;;;;;5046116;28;20052;-57
2024/04/08 10:23:45;;;;;;;18.02;5.10;;;;;;;;;;5050940;28;19924;-56
2024/04/08 10:26:12;;;;;;;16.42;4.18;;;;;;;;;;5064854;28;20052;-56
2024/04/08 10:28:41;;;;;;;22.20;5.13;;;;;;;;;;5063106;28;20060;-56
2024/04/08 10:31:07;;;;;;;20.92;4.88;;;;;;;;;;5064976;28;20040;-55
2024/04/08 10:33:36;;;;;;;19.65;4.15;;;;;;;;;;5055015;28;20087;-51
2024/04/08 10:36:02;;;;;;;23.55;4.20;;;;;;;;;;5060316;28;20049;-56
2024/04/08 10:38:29;;;;;;;18.38;4.57;;;;;;;;;;5066885;28;20051;-55
2024/04/08 10:40:55;;;;;;;22.27;5.78;;;;;;;;;;5069038;28;20052;-56
2024/04/08 10:43:23;;;;;;;20.73;5.43;;;;;;;;;;5059974;28;20388;-56
2024/04/08 10:45:49;;;;;;;17.27;4.60;;;;;;;;;;5068391;28;20510;-55
2024/04/08 10:48:17;;;;;;;19.05;4.63;;;;;;;;;;5062541;28;20041;-54
2024/04/08 10:50:47;;;;;;;20.00;5.68;;;;;;;;;;5050968;28;20135;-55
2024/04/08 10:53:14;;;;;;;20.85;4.95;;;;;;;;;;5048259;28;20045;-56
2024/04/08 10:55:40;;;;;;;23.65;5.43;;;;;;;;;;5042433;28;20053;-53
2024/04/08 10:58:07;;;;;;;23.75;5.15;;;;;;;;;;5045162;28;20045;-54
2024/04/08 11:00:33;;;;;;;19.52;4.07;;;;;;;;;;5051091;28;20049;-54
2024/04/08 11:03:01;;;;;;;16.98;4.50;;;;;;;;;;5059099;28;20044;-52
2024/04/08 11:05:28;;;;;;;23.50;7.30;;;;;;;;;;5053181;28;20057;-54
2024/04/08 11:07:58;;;;;;;25.35;6.45;;;;;;;;;;5050784;28;20044;-57
2024/04/08 11:10:24;;;;;;;20.92;5.78;;;;;;;;;;5044581;28;20053;-56
2024/04/08 11:12:51;;;;;;;22.92;5.38;;;;;;;;;;5038312;28;20103;-54
2024/04/08 11:15:17;;;;;;;24.40;11.13;;;;;;;;;;5039916;28;20049;-54
2024/04/08 11:17:43;;;;;;;29.15;7.50;;;;;;;;;;5039559;28;20404;-54
2024/04/08 11:20:12;;;;;;;17.42;5.18;;;;;;;;;;5045741;28;20056;-55
2024/04/08 11:22:40;;;;;;;22.00;5.27;;;;;;;;;;5046957;28;20088;-56
2024/04/08 11:25:13;;;;;;;18.27;4.32;;;;;;;;;;5050472;28;20045;-56
2024/04/08 11:29:11;;;;;;;25.67;5.97;;;;;;;;;;5495896;25;20342;-56
2024/04/08 11:31:37;;;;;;;25.33;5.07;;;;;;;;;;5476882;26;20143;-51
2024/04/08 11:34:06;;;;;;;19.88;5.20;;;;;;;;;;5467543;26;20467;-55
2024/04/08 11:36:32;;;;;;;24.52;4.38;;;;;;;;;;5454124;26;20014;-56
2024/04/08 11:39:00;;;;;;;21.17;5.10;;;;;;;;;;5461954;26;20478;-53
2024/04/08 11:41:41;;;;;;;17.70;5.45;;;;;;;;;;5453322;26;20014;-56
2024/04/08 11:44:12;;;;;;;25.25;6.07;;;;;;;;;;5465684;26;19998;-54
2024/04/08 11:46:38;;;;;;;19.13;4.05;;;;;;;;;;5464333;26;20014;-53
2024/04/08 11:49:07;;;;;;;19.15;4.45;;;;;;;;;;5467007;26;20403;-54
2024/04/08 11:51:33;;;;;;;19.95;5.13;;;;;;;;;;5463534;26;20014;-56
2024/04/08 11:54:02;;;;;;;25.23;5.47;;;;;;;;;;5452768;26;20045;-54
2024/04/08 11:56:28;;;;;;;21.75;4.15;;;;;;;;;;5457907;26;20015;-56
2024/04/08 11:58:56;;;;;;;26.70;4.43;;;;;;;;;;5466103;26;20076;-53
2024/04/08 12:01:25;;;;;;;23.63;4.25;;;;;;;;;;5460862;26;20080;-56
2024/04/08 12:03:53;;;;;;;22.98;4.38;;;;;;;;;;5444377;26;20079;-55
2024/04/08 12:06:19;;;;;;;21.15;4.75;;;;;;;;;;5466466;26;20396;-56
2024/04/08 12:08:48;;;;;;;25.48;4.38;;;;;;;;;;5458677;26;20013;-55
2024/04/08 12:11:14;;;;;;;19.98;5.15;;;;;;;;;;5467930;26;19999;-56
2024/04/08 12:13:42;;;;;;;24.42;5.47;;;;;;;;;;5466715;26;20015;-56
2024/04/08 12:16:10;;;;;;;29.83;6.57;;;;;;;;;;5454292;26;20002;-55
2024/04/08 12:18:41;;;;;;;24.33;4.93;;;;;;;;;;5450861;26;20017;-56
2024/04/08 12:21:07;;;;;;;23.70;5.85;;;;;;;;;;5458443;26;20466;-54
2024/04/08 12:23:35;;;;;;;20.70;4.88;;;;;;;;;;5456452;26;20022;-55
2024/04/08 12:26:01;;;;;;;19.42;4.43;;;;;;;;;;5463400;26;20010;-55
2024/04/08 12:28:30;;;;;;;23.02;4.63;;;;;;;;;;5457060;26;20011;-56
2024/04/08 12:30:56;;;;;;;23.25;4.80;;;;;;;;;;5463118;26;20018;-53
2024/04/08 12:33:24;;;;;;;34.65;6.70;;;;;;;;;;5468598;26;20354;-53
2024/04/08 12:35:53;;;;;;;19.88;4.88;;;;;;;;;;5451197;26;20015;-56
2024/04/08 12:38:21;;;;;;;28.00;6.00;;;;;;;;;;5440160;26;20010;-57
2024/04/08 12:40:47;;;;;;;27.10;5.65;;;;;;;;;;5432064;26;20012;-57
2024/04/08 12:43:16;;;;;;;24.58;4.65;;;;;;;;;;5437996;26;20505;-57
2024/04/08 12:45:42;;;;;;;29.90;6.55;;;;;;;;;;5444202;26;20010;-53
2024/04/08 12:48:11;;;;;;;22.30;4.70;;;;;;;;;;5443501;26;20412;-55
2024/04/08 12:50:38;;;;;;;24.60;5.22;;;;;;;;;;5452127;26;19994;-54
2024/04/08 12:53:10;;;;;;;20.98;5.68;;;;;;;;;;5445184;26;20002;-49
2024/04/08 12:55:38;;;;;;;29.90;5.53;;;;;;;;;;5442498;26;20011;-54
2024/04/08 12:58:08;;;;;;;27.17;5.45;;;;;;;;;;5447700;26;20339;-53
2024/04/08 13:00:34;;;;;;;25.35;6.03;;;;;;;;;;5432958;26;20003;-54
2024/04/08 13:03:02;;;;;;;15.18;4.07;;;;;;;;;;5451917;26;20010;-56
2024/04/08 13:05:28;;;;;;;20.05;5.00;;;;;;;;;;5450937;26;20003;-55
2024/04/08 13:07:57;;;;;;;30.55;6.25;;;;;;;;;;5452294;26;19995;-55
2024/04/08 13:10:26;;;;;;;23.83;5.67;;;;;;;;;;5452452;26;19995;-57
2024/04/08 13:12:54;;;;;;;26.55;6.20;;;;;;;;;;5440943;26;19999;-56
2024/04/08 13:15:20;;;;;;;25.63;5.30;;;;;;;;;;5451237;26;19995;-55
2024/04/08 13:17:49;;;;;;;26.52;5.18;;;;;;;;;;5452068;26;20469;-55
2024/04/08 13:20:16;;;;;;;21.02;5.60;;;;;;;;;;5440789;26;20482;-58
2024/04/08 13:22:45;;;;;;;29.02;5.65;;;;;;;;;;5450530;26;20469;-57
2024/04/08 13:25:11;;;;;;;20.00;5.03;;;;;;;;;;5452245;26;20006;-57
2024/04/08 13:27:42;;;;;;;24.75;5.55;;;;;;;;;;5449091;26;20000;-57
2024/04/08 13:30:10;;;;;;;21.13;4.90;;;;;;;;;;5451699;26;20357;-57
2024/04/08 13:32:39;;;;;;;31.42;5.88;;;;;;;;;;5436043;26;20447;-55
2024/04/08 13:35:06;;;;;;;24.42;5.15;;;;;;;;;;5435192;26;20184;-56
2024/04/08 13:37:34;;;;;;;28.63;5.68;;;;;;;;;;5440706;26;20003;-57
2024/04/08 13:40:00;;;;;;;25.23;6.03;;;;;;;;;;5443577;26;20023;-55
2024/04/08 13:42:29;;;;;;;28.17;5.53;;;;;;;;;;5439838;26;20000;-56
2024/04/08 13:44:57;;;;;;;23.27;5.28;;;;;;;;;;5451642;26;20023;-56
2024/04/08 13:47:27;;;;;;;27.75;5.38;;;;;;;;;;5451834;26;20027;-57
2024/04/08 13:49:53;;;;;;;20.80;4.68;;;;;;;;;;5451699;26;20127;-57
2024/04/08 13:52:22;;;;;;;32.75;5.88;;;;;;;;;;5445988;26;20086;-59
2024/04/08 13:54:48;;;;;;;31.65;5.97;;;;;;;;;;5436011;26;20006;-58
2024/04/08 13:57:16;;;;;;;29.58;4.97;;;;;;;;;;5429173;26;20083;-62
2024/04/08 13:59:42;;;;;;;30.20;6.75;;;;;;;;;;5440647;26;20380;-64
2024/04/08 14:02:14;;;;;;;27.67;5.75;;;;;;;;;;5436615;26;20041;-55
2024/04/08 14:04:40;;;;;;;29.65;5.43;;;;;;;;;;5437823;26;20027;-56
2024/04/08 14:07:08;;;;;;;27.65;8.85;;;;;;;;;;5451358;26;20454;-57
2024/04/08 14:09:34;;;;;;;33.00;10.20;;;;;;;;;;5451547;26;20013;-57
2024/04/08 14:12:03;;;;;;;35.30;8.80;;;;;;;;;;5451398;26;20350;-57
2024/04/08 14:14:28;;;;;;;30.15;8.45;;;;;;;;;;5441184;26;20077;-57
2024/04/08 14:16:59;;;;;;;27.80;8.85;;;;;;;;;;5451285;26;20015;-58
2024/04/08 14:19:27;;;;;;;26.83;6.65;;;;;;;;;;5446028;26;19999;-58
2024/04/08 14:21:56;;;;;;;30.88;5.47;;;;;;;;;;5451315;26;20003;-58
2024/04/08 14:24:22;;;;;;;27.60;7.38;;;;;;;;;;5450087;26;20018;-56
2024/04/08 14:26:50;;;;;;;27.35;5.85;;;;;;;;;;5446683;26;19999;-56
2024/04/08 14:29:16;;;;;;;27.48;6.53;;;;;;;;;;5450974;26;20010;-56
2024/04/08 14:31:45;;;;;;;23.88;5.55;;;;;;;;;;5451081;26;20330;-58
2024/04/08 14:34:11;;;;;;;25.65;4.68;;;;;;;;;;5451328;26;20014;-58